Time;durP1;ratioP1;P1;durP2;ratioP2;P2;SDS_P1;SDS_P2;PMS_P1;PMS_P2;Temp;Humidity;BMP_temperature;BMP_pressure;BME280_temperature;BME280_humidity;BME280_pressure;Samples;Min_cycle;Max_cycle;Signal;HPM_P1;HPM_P2
2022/04/09 00:00:21;;;;;;;6.03;3.00;;;;;;;18.29;46.18;99529.03;5026873;28;20054;-85
2022/04/09 00:02:48;;;;;;;5.95;2.33;;;;;;;18.10;46.18;99496.66;5026384;28;20076;-87
2022/04/09 00:05:15;;;;;;;5.35;2.50;;;;;;;17.79;46.58;99442.81;5009428;28;20045;-87
2022/04/09 00:07:43;;;;;;;5.80;1.98;;;;;;;18.22;46.83;99518.28;5009289;28;20467;-87
2022/04/09 00:10:11;;;;;;;7.45;2.72;;;;;;;18.21;46.27;99500.53;5009163;28;20728;-87
2022/04/09 00:12:38;;;;;;;7.60;2.45;;;;;;;18.25;46.70;99500.94;5009457;28;20061;-86
2022/04/09 00:15:06;;;;;;;4.82;2.35;;;;;;;18.07;46.30;99472.91;5008977;28;20054;-87
2022/04/09 00:17:41;;;;;;;7.07;2.47;;;;;;;17.88;47.03;99480.00;5009698;28;20080;-87
2022/04/09 00:20:10;;;;;;;8.77;2.50;;;;;;;17.80;46.35;99447.16;5012711;28;20109;-86
2022/04/09 00:22:38;;;;;;;6.53;2.33;;;;;;;18.17;46.47;99519.97;5029965;28;20089;-86
2022/04/09 00:25:07;;;;;;;8.50;2.67;;;;;;;18.20;46.18;99506.94;5012553;28;20053;-87
2022/04/09 00:27:33;;;;;;;10.98;2.28;;;;;;;18.21;46.70;99516.66;5030218;28;20045;-87
2022/04/09 00:30:00;;;;;;;8.93;2.72;;;;;;;18.26;46.61;99516.03;5012272;28;20139;-86
2022/04/09 00:32:27;;;;;;;9.25;2.85;;;;;;;17.92;46.70;99461.63;5012349;28;20149;-88
2022/04/09 00:34:54;;;;;;;5.82;2.47;;;;;;;18.03;46.65;99470.84;5029595;28;20042;-87
2022/04/09 00:37:20;;;;;;;7.13;2.70;;;;;;;18.06;46.84;99481.16;5012364;28;20076;-86
2022/04/09 00:39:47;;;;;;;9.07;2.83;;;;;;;18.10;46.91;99466.28;5012312;28;20045;-87
2022/04/09 00:42:15;;;;;;;11.77;2.88;;;;;;;16.80;46.76;99265.88;5012274;28;20369;-86
2022/04/09 00:44:42;;;;;;;8.10;2.67;;;;;;;18.22;47.15;99507.56;5012133;28;20080;-87
2022/04/09 00:47:09;;;;;;;5.68;2.28;;;;;;;18.17;47.35;99502.00;5012428;28;20049;-87
2022/04/09 00:49:37;;;;;;;9.25;2.92;;;;;;;18.17;47.33;99482.38;5012489;28;20224;-86
2022/04/09 00:52:06;;;;;;;5.97;2.55;;;;;;;17.77;47.29;99431.47;5013295;28;20128;-87
2022/04/09 00:54:37;;;;;;;6.07;2.78;;;;;;;16.84;47.83;99309.16;5018194;28;20053;-87
2022/04/09 00:57:06;;;;;;;15.20;2.92;;;;;;;17.87;48.10;99477.53;5013156;28;20141;-87
2022/04/09 00:59:38;;;;;;;7.65;2.70;;;;;;;18.04;47.92;99484.09;5012178;28;20050;-87
2022/04/09 01:02:05;;;;;;;7.38;2.80;;;;;;;17.80;47.93;99444.50;5011826;28;20331;-87
2022/04/09 01:04:32;;;;;;;5.10;2.90;;;;;;;17.92;47.73;99459.75;5011915;28;20080;-88
2022/04/09 01:07:00;;;;;;;6.88;2.50;;;;;;;17.95;47.91;99463.88;5011545;28;20515;-87
2022/04/09 01:09:26;;;;;;;10.27;3.03;;;;;;;18.01;48.14;99463.03;5011956;28;20061;-87
2022/04/09 01:11:54;;;;;;;9.98;2.83;;;;;;;18.02;48.26;99483.47;5011813;28;20617;-87
2022/04/09 01:14:20;;;;;;;11.05;2.90;;;;;;;17.68;48.28;99425.53;5011434;28;20049;-87
2022/04/09 01:16:47;;;;;;;13.73;3.40;;;;;;;17.90;48.33;99466.38;5011839;28;20140;-86
2022/04/09 01:19:14;;;;;;;10.60;2.97;;;;;;;18.06;48.10;99487.38;5011823;28;20411;-86
2022/04/09 01:21:40;;;;;;;8.80;3.13;;;;;;;17.98;48.34;99462.63;5011557;28;20049;-86
2022/04/09 01:24:07;;;;;;;6.72;2.47;;;;;;;17.93;48.59;99471.31;5012047;28;20045;-86
2022/04/09 01:26:34;;;;;;;7.38;2.63;;;;;;;17.94;49.21;99467.59;5013937;28;20144;-86
2022/04/09 01:29:02;;;;;;;7.65;2.22;;;;;;;17.86;48.81;99443.66;5019263;28;20081;-87
2022/04/09 01:31:28;;;;;;;6.82;2.72;;;;;;;17.93;48.76;99463.25;5040270;28;20042;-86
2022/04/09 01:33:55;;;;;;;10.13;2.67;;;;;;;17.80;48.68;99431.06;5025454;28;20076;-86
2022/04/09 01:36:22;;;;;;;5.13;1.92;;;;;;;17.72;48.54;99432.94;5041610;28;20077;-86
2022/04/09 01:38:48;;;;;;;4.75;2.58;;;;;;;17.86;48.96;99457.06;5015865;28;20080;-87
2022/04/09 01:41:15;;;;;;;11.75;2.80;;;;;;;17.34;49.09;99384.53;5011859;28;20099;-86
2022/04/09 01:43:42;;;;;;;5.75;2.38;;;;;;;17.40;48.87;99364.91;5011298;28;20146;-87
2022/04/09 01:46:08;;;;;;;11.85;2.65;;;;;;;17.58;48.80;99417.91;5011144;28;20045;-85
2022/04/09 01:48:35;;;;;;;8.00;2.50;;;;;;;17.74;48.93;99435.41;5011265;28;20060;-87
2022/04/09 01:51:02;;;;;;;6.22;2.22;;;;;;;17.70;48.50;99413.53;5028427;28;20064;-87
2022/04/09 01:53:28;;;;;;;9.77;2.95;;;;;;;17.29;48.76;99344.94;5028600;28;20657;-87
2022/04/09 01:55:55;;;;;;;10.45;2.92;;;;;;;17.18;48.08;99305.34;5011047;28;20100;-87
2022/04/09 01:58:22;;;;;;;8.90;2.70;;;;;;;17.27;47.70;99322.03;5011239;28;20639;-87
2022/04/09 02:00:48;;;;;;;6.53;2.13;;;;;;;17.56;48.18;99382.41;5028839;28;20456;-85
2022/04/09 02:03:15;;;;;;;6.93;1.90;;;;;;;18.00;47.99;99418.41;5019206;28;20049;-86
2022/04/09 02:05:41;;;;;;;5.95;2.38;;;;;;;17.90;47.91;99404.63;5020208;28;20760;-87
2022/04/09 02:08:08;;;;;;;4.93;2.40;;;;;;;17.79;47.47;99379.25;5011549;28;20483;-87
2022/04/09 02:10:37;;;;;;;6.15;2.28;;;;;;;18.03;47.65;99423.34;5028740;28;20165;-87
2022/04/09 02:13:10;;;;;;;10.68;3.03;;;;;;;17.66;47.69;99369.38;5028438;28;20052;-86
2022/04/09 02:15:37;;;;;;;5.15;2.22;;;;;;;17.27;48.12;99298.72;5028176;28;20492;-87
2022/04/09 02:18:04;;;;;;;5.53;2.42;;;;;;;16.96;47.71;99247.69;5010589;28;20134;-86
2022/04/09 02:20:32;;;;;;;4.97;1.98;;;;;;;17.48;47.84;99345.09;5028025;28;20525;-86
2022/04/09 02:22:59;;;;;;;10.55;2.92;;;;;;;16.47;47.85;99190.06;5010560;28;20142;-86
2022/04/09 02:25:25;;;;;;;7.38;2.67;;;;;;;16.78;48.24;99267.94;5027963;28;20050;-86
2022/04/09 02:27:52;;;;;;;4.95;2.25;;;;;;;17.66;47.96;99416.84;5010689;28;20419;-87
2022/04/09 02:30:18;;;;;;;6.00;2.65;;;;;;;16.95;48.21;99307.69;5010204;28;20149;-87
2022/04/09 02:32:48;;;;;;;6.25;2.38;;;;;;;16.76;48.07;99282.53;5010358;28;20132;-86
2022/04/09 02:35:19;;;;;;;5.97;2.30;;;;;;;17.73;48.03;99429.22;5010177;28;20163;-86
2022/04/09 02:37:46;;;;;;;5.43;2.40;;;;;;;17.48;48.31;99410.31;5010119;28;20053;-87
2022/04/09 02:40:13;;;;;;;7.35;2.58;;;;;;;17.68;48.37;99442.44;5009555;28;20208;-87
2022/04/09 02:42:41;;;;;;;10.93;2.88;;;;;;;17.30;48.34;99376.06;5010113;28;20053;-88
2022/04/09 02:45:10;;;;;;;10.73;2.60;;;;;;;17.71;48.17;99436.66;5009974;28;20427;-87
2022/04/09 02:47:37;;;;;;;6.65;2.58;;;;;;;17.70;48.11;99429.63;5010166;28;20726;-86
2022/04/09 02:50:05;;;;;;;5.70;2.47;;;;;;;17.73;47.74;99414.97;5010017;28;20152;-87
2022/04/09 02:52:35;;;;;;;6.13;2.38;;;;;;;17.87;47.64;99429.22;5009964;28;20081;-86
2022/04/09 02:55:05;;;;;;;5.85;2.08;;;;;;;17.63;47.88;99409.22;5009555;28;20118;-86
2022/04/09 02:57:36;;;;;;;9.05;2.38;;;;;;;17.57;47.81;99384.06;5009759;28;20057;-86
2022/04/09 03:00:06;;;;;;;8.55;2.50;;;;;;;17.34;48.00;99354.22;5009380;28;20136;-87
2022/04/09 03:02:36;;;;;;;6.57;2.42;;;;;;;17.45;47.96;99372.31;5028890;28;20053;-86
2022/04/09 03:05:04;;;;;;;8.82;2.40;;;;;;;17.62;47.44;99383.41;5031695;28;20080;-86
2022/04/09 03:07:31;;;;;;;7.82;2.80;;;;;;;17.79;47.30;99402.56;5009957;28;20140;-85
2022/04/09 03:09:58;;;;;;;6.00;2.30;;;;;;;17.64;47.56;99406.31;5009259;28;20104;-86
2022/04/09 03:12:25;;;;;;;9.93;2.65;;;;;;;17.78;47.39;99408.97;5027118;28;20136;-86
2022/04/09 03:14:51;;;;;;;5.57;2.17;;;;;;;17.76;47.10;99403.00;5026631;28;20152;-87
2022/04/09 03:17:18;;;;;;;6.32;2.60;;;;;;;17.68;47.25;99404.88;5027236;28;20044;-86
2022/04/09 03:19:44;;;;;;;3.80;2.20;;;;;;;17.72;47.38;99414.16;5009651;28;20045;-87
2022/04/09 03:22:12;;;;;;;6.90;2.63;;;;;;;17.65;47.69;99421.41;5029580;28;20484;-86
2022/04/09 03:24:38;;;;;;;7.45;2.85;;;;;;;17.61;47.61;99403.25;5017000;28;20494;-87
2022/04/09 03:27:05;;;;;;;5.88;2.60;;;;;;;17.21;47.50;99342.50;5016783;28;20202;-86
2022/04/09 03:29:32;;;;;;;5.30;2.47;;;;;;;17.30;47.55;99354.63;5014602;28;20132;-86
2022/04/09 03:32:00;;;;;;;11.18;2.80;;;;;;;17.73;46.89;99380.91;5011918;28;20051;-86
2022/04/09 03:34:27;;;;;;;9.90;2.20;;;;;;;17.54;47.16;99376.44;5016110;28;20056;-86
2022/04/09 03:36:54;;;;;;;7.55;2.28;;;;;;;17.67;47.29;99405.06;5017378;28;20088;-87
2022/04/09 03:39:21;;;;;;;8.38;2.30;;;;;;;17.50;47.03;99351.91;5030092;28;20522;-87
2022/04/09 03:41:47;;;;;;;9.10;2.50;;;;;;;17.77;46.51;99377.78;5027856;28;20399;-85
2022/04/09 03:44:34;;;;;;;5.95;2.38;;;;;;;17.66;46.23;99364.00;5012957;28;20281;-87
2022/04/09 03:47:02;;;;;;;8.82;2.20;;;;;;;16.78;46.90;99243.81;5010275;28;20060;-85
2022/04/09 03:49:29;;;;;;;8.65;2.03;;;;;;;17.24;47.10;99323.28;5009695;28;20136;-86
2022/04/09 03:51:57;;;;;;;10.57;2.70;;;;;;;17.33;46.44;99341.81;5010062;28;20466;-87
2022/04/09 03:54:24;;;;;;;5.70;2.45;;;;;;;17.75;46.29;99382.56;5014123;28;20128;-87
2022/04/09 03:56:51;;;;;;;9.75;2.55;;;;;;;17.58;46.75;99364.25;5032225;28;20049;-86
2022/04/09 03:59:18;;;;;;;10.05;2.35;;;;;;;17.52;46.26;99348.97;5014381;28;20498;-86
2022/04/09 04:01:47;;;;;;;9.25;2.35;;;;;;;17.37;46.40;99343.06;5014422;28;20052;-86
2022/04/09 04:04:14;;;;;;;5.45;2.42;;;;;;;17.61;46.74;99376.41;5014230;28;20058;-85
2022/04/09 04:06:41;;;;;;;7.40;2.70;;;;;;;17.33;46.55;99340.00;5014831;28;20118;-88
2022/04/09 04:09:09;;;;;;;9.82;3.13;;;;;;;16.58;47.01;99221.56;5031590;28;20140;-87
2022/04/09 04:11:35;;;;;;;7.60;2.60;;;;;;;17.44;46.76;99328.59;5031650;28;20495;-87
2022/04/09 04:14:03;;;;;;;8.00;2.35;;;;;;;16.90;46.36;99248.53;5013736;28;20057;-87
2022/04/09 04:16:30;;;;;;;6.93;2.17;;;;;;;17.61;46.41;99366.50;5031568;28;20061;-86
2022/04/09 04:18:57;;;;;;;7.88;2.70;;;;;;;17.03;46.31;99275.28;5013971;28;20080;-87
2022/04/09 04:21:23;;;;;;;4.35;2.50;;;;;;;15.97;46.15;99111.06;5031434;28;20463;-86
2022/04/09 04:23:50;;;;;;;6.68;2.45;;;;;;;17.30;46.42;99333.16;5014050;28;20135;-85
2022/04/09 04:26:17;;;;;;;7.00;3.00;;;;;;;16.74;46.22;99249.75;5014210;28;20538;-85
2022/04/09 04:28:51;;;;;;;8.50;2.42;;;;;;;17.46;46.38;99374.00;5014780;28;20081;-86
2022/04/09 04:31:18;;;;;;;8.85;2.50;;;;;;;17.09;45.86;99303.94;5029923;28;20049;-86
2022/04/09 04:33:45;;;;;;;7.75;2.55;;;;;;;16.29;46.12;99170.09;5013748;28;20060;-87
2022/04/09 04:36:12;;;;;;;7.00;2.33;;;;;;;16.69;46.33;99231.63;5027273;28;20041;-86
2022/04/09 04:38:39;;;;;;;5.72;2.85;;;;;;;16.53;46.07;99202.59;5001410;28;20088;-86
2022/04/09 04:41:06;;;;;;;4.55;2.00;;;;;;;17.20;46.22;99322.06;5011463;28;20065;-86
2022/04/09 04:43:34;;;;;;;8.32;2.30;;;;;;;17.24;45.46;99312.56;5029108;28;20053;-86
2022/04/09 04:46:01;;;;;;;8.13;2.60;;;;;;;17.44;45.49;99339.31;5010284;28;20426;-85
2022/04/09 04:48:28;;;;;;;6.00;2.38;;;;;;;16.45;45.57;99199.09;5009848;28;20145;-87
2022/04/09 04:50:55;;;;;;;8.82;2.95;;;;;;;16.70;45.28;99233.28;5009968;28;20107;-87
2022/04/09 04:53:22;;;;;;;4.95;2.42;;;;;;;16.16;45.31;99154.03;5028023;28;20566;-85
2022/04/09 04:55:49;;;;;;;6.65;2.38;;;;;;;17.44;45.70;99370.69;5010692;28;20041;-86
2022/04/09 04:58:19;;;;;;;8.02;2.88;;;;;;;17.60;45.31;99380.97;4998686;28;20046;-86
2022/04/09 05:00:46;;;;;;;6.40;2.28;;;;;;;17.01;45.25;99304.16;4995870;28;20053;-87
2022/04/09 05:03:13;;;;;;;5.88;2.67;;;;;;;17.51;45.47;99387.59;4999337;28;20092;-85
2022/04/09 05:05:40;;;;;;;5.65;2.38;;;;;;;17.47;45.31;99389.84;4998368;28;20050;-86
2022/04/09 05:08:09;;;;;;;6.97;2.17;;;;;;;16.64;45.94;99285.03;4999094;28;20089;-86
2022/04/09 05:10:35;;;;;;;7.13;2.63;;;;;;;17.39;45.83;99419.59;4995615;28;20652;-85
2022/04/09 05:13:02;;;;;;;7.70;2.45;;;;;;;17.45;45.49;99409.88;5020068;28;20062;-85
2022/04/09 05:15:29;;;;;;;7.28;2.28;;;;;;;17.18;45.67;99391.16;5004776;28;20066;-85
2022/04/09 05:17:56;;;;;;;6.05;2.03;;;;;;;17.39;45.75;99437.56;5000885;28;20460;-85
2022/04/09 05:20:23;;;;;;;8.13;2.88;;;;;;;17.45;45.44;99428.66;4991578;28;20108;-85
2022/04/09 05:22:49;;;;;;;7.05;2.10;;;;;;;17.32;45.14;99386.59;5008289;28;20082;-85
2022/04/09 05:25:21;;;;;;;7.47;2.90;;;;;;;17.43;45.27;99407.44;4990108;28;20503;-85
2022/04/09 05:27:49;;;;;;;9.20;2.78;;;;;;;16.21;45.56;99242.59;4989842;28;20268;-85
2022/04/09 05:30:16;;;;;;;6.97;1.98;;;;;;;17.25;44.79;99373.19;4989902;28;20062;-86
2022/04/09 05:32:43;;;;;;;4.85;2.20;;;;;;;17.35;44.74;99398.78;4989605;28;20065;-86
2022/04/09 05:35:11;;;;;;;11.15;2.50;;;;;;;17.47;44.93;99415.88;4989086;28;20046;-87
2022/04/09 05:37:43;;;;;;;8.50;2.40;;;;;;;17.63;43.69;99395.81;4990213;28;20084;-87
2022/04/09 05:40:10;;;;;;;11.10;2.53;;;;;;;17.75;43.10;99391.44;5009708;28;20061;-85
2022/04/09 05:42:37;;;;;;;7.03;2.53;;;;;;;17.69;43.40;99379.69;5027083;28;20447;-85
2022/04/09 05:45:04;;;;;;;5.97;2.15;;;;;;;17.80;42.61;99363.97;5009636;28;20045;-86
2022/04/09 05:47:31;;;;;;;5.80;2.30;;;;;;;17.12;42.78;99281.25;5001761;28;20463;-85
2022/04/09 05:49:58;;;;;;;13.23;2.70;;;;;;;17.75;42.26;99355.72;5007190;28;20058;-85
2022/04/09 05:52:25;;;;;;;10.13;2.40;;;;;;;17.99;42.62;99387.22;4988624;28;20621;-86
2022/04/09 05:54:51;;;;;;;5.05;2.30;;;;;;;17.92;42.71;99389.13;4988753;28;20054;-85
2022/04/09 05:57:18;;;;;;;9.75;2.70;;;;;;;17.88;42.58;99398.63;4989889;28;20527;-87
2022/04/09 05:59:45;;;;;;;10.65;2.90;;;;;;;17.71;43.07;99379.47;4989716;28;20076;-86
2022/04/09 06:02:12;;;;;;;9.27;2.63;;;;;;;17.78;43.15;99380.25;5005835;28;20100;-87
2022/04/09 06:04:39;;;;;;;6.38;2.60;;;;;;;17.79;42.52;99375.72;4989058;28;20061;-85
2022/04/09 06:07:06;;;;;;;13.60;2.80;;;;;;;17.29;42.79;99315.44;4989228;28;20056;-85
2022/04/09 06:09:33;;;;;;;10.68;2.78;;;;;;;17.13;42.69;99270.31;5006891;28;20383;-85
2022/04/09 06:12:00;;;;;;;9.45;2.38;;;;;;;16.53;42.97;99159.75;4989806;28;20041;-85
2022/04/09 06:14:26;;;;;;;11.00;2.55;;;;;;;17.20;43.24;99305.97;4988529;28;20049;-84
2022/04/09 06:16:53;;;;;;;6.60;2.28;;;;;;;17.72;42.67;99365.03;4988624;28;20077;-86
2022/04/09 06:19:20;;;;;;;5.95;2.08;;;;;;;17.33;43.46;99315.00;4989110;28;20139;-85
2022/04/09 06:21:47;;;;;;;9.65;2.10;;;;;;;17.76;43.64;99389.56;4989448;28;20135;-85
2022/04/09 06:24:14;;;;;;;9.73;3.00;;;;;;;16.57;43.26;99166.34;4988996;28;20061;-85
2022/04/09 06:26:41;;;;;;;8.82;2.63;;;;;;;18.09;43.14;99400.19;4989132;28;20057;-83
2022/04/09 06:29:09;;;;;;;7.10;2.40;;;;;;;18.26;43.14;99395.16;4989740;28;20057;-83
2022/04/09 06:31:35;;;;;;;4.40;1.80;;;;;;;17.97;43.32;99362.44;4989566;28;20050;-84
2022/04/09 06:34:02;;;;;;;12.57;2.92;;;;;;;17.51;42.84;99275.72;5007260;28;20139;-84
2022/04/09 06:36:29;;;;;;;7.90;2.53;;;;;;;18.23;42.68;99352.56;5006580;28;20060;-84
2022/04/09 06:38:55;;;;;;;10.80;3.15;;;;;;;18.32;42.12;99364.72;4989240;28;20057;-84
2022/04/09 06:41:22;;;;;;;6.18;1.70;;;;;;;18.64;42.17;99387.03;5000570;28;20479;-84
2022/04/09 06:43:49;;;;;;;8.07;2.78;;;;;;;18.60;41.86;99385.00;5009105;28;20096;-86
2022/04/09 06:46:16;;;;;;;7.82;2.83;;;;;;;18.26;41.40;99322.63;5026391;28;20045;-86
2022/04/09 06:48:43;;;;;;;9.57;2.80;;;;;;;18.54;41.49;99392.91;5008837;28;20553;-86
2022/04/09 06:51:10;;;;;;;7.95;2.50;;;;;;;18.45;41.57;99371.88;5008729;28;20110;-85
2022/04/09 06:53:55;;;;;;;5.57;2.40;;;;;;;18.68;41.17;99407.03;5008191;28;20061;-86
2022/04/09 06:56:22;;;;;;;8.02;2.38;;;;;;;18.23;41.86;99344.50;5008481;28;20136;-85
2022/04/09 06:58:49;;;;;;;8.38;2.10;;;;;;;18.43;41.12;99352.47;5008790;28;20128;-85
2022/04/09 07:01:15;;;;;;;5.05;2.50;;;;;;;18.82;41.33;99394.34;4996781;28;20093;-84
2022/04/09 07:03:42;;;;;;;7.57;2.28;;;;;;;18.52;41.21;99368.09;4989383;28;20452;-86
2022/04/09 07:06:10;;;;;;;9.57;2.28;;;;;;;17.61;41.18;99229.66;4990216;28;20115;-86
2022/04/09 07:08:36;;;;;;;4.80;2.20;;;;;;;18.85;40.83;99395.78;4990528;28;20045;-86
2022/04/09 07:11:03;;;;;;;11.13;2.55;;;;;;;18.31;40.53;99291.38;4991038;28;20101;-85
2022/04/09 07:13:31;;;;;;;6.28;2.30;;;;;;;18.47;40.70;99348.28;5008144;28;20441;-85
2022/04/09 07:15:58;;;;;;;4.18;2.15;;;;;;;18.26;41.21;99319.94;4991268;28;20045;-84
2022/04/09 07:18:25;;;;;;;8.85;2.47;;;;;;;18.76;40.88;99401.44;5011217;28;20165;-85
2022/04/09 07:20:52;;;;;;;10.63;2.80;;;;;;;18.16;40.43;99309.66;4997820;28;20077;-85
2022/04/09 07:23:19;;;;;;;6.13;2.20;;;;;;;18.01;40.73;99296.56;5019663;28;20382;-85
2022/04/09 07:25:46;;;;;;;9.73;2.15;;;;;;;18.60;40.93;99398.44;4998276;28;20038;-86
2022/04/09 07:28:13;;;;;;;6.50;1.98;;;;;;;18.54;40.92;99390.22;4995958;28;20050;-84
2022/04/09 07:30:42;;;;;;;9.25;2.53;;;;;;;18.31;39.94;99317.41;5002849;28;20108;-85
2022/04/09 07:33:08;;;;;;;6.63;2.40;;;;;;;17.77;43.03;99238.22;5002281;28;20076;-83
2022/04/09 07:35:35;;;;;;;5.53;2.15;;;;;;;18.93;44.50;99415.16;4994121;28;20049;-82
2022/04/09 07:38:04;;;;;;;6.93;2.10;;;;;;;18.53;42.08;99358.97;4992064;28;20042;-83
2022/04/09 07:40:30;;;;;;;5.18;2.28;;;;;;;18.65;45.47;99361.78;5010961;28;20057;-81
2022/04/09 07:42:59;;;;;;;5.20;1.80;;;;;;;18.98;44.82;99415.31;4992365;28;20099;-82
2022/04/09 07:45:27;;;;;;;4.57;2.22;;;;;;;18.24;44.23;99322.00;5010028;28;20549;-82
2022/04/09 07:47:56;;;;;;;3.33;1.83;;;;;;;18.83;44.63;99379.03;5010375;28;20042;-81
2022/04/09 07:50:25;;;;;;;6.72;2.38;;;;;;;19.03;40.28;99416.50;4992694;28;20050;-81
2022/04/09 07:52:53;;;;;;;6.53;2.28;;;;;;;18.77;44.53;99394.19;4992798;28;20507;-82
2022/04/09 07:55:20;;;;;;;7.90;2.25;;;;;;;18.52;39.74;99376.16;4992046;28;20558;-82
2022/04/09 07:57:51;;;;;;;10.20;2.63;;;;;;;18.78;43.44;99425.41;4992588;28;20068;-81
2022/04/09 08:00:20;;;;;;;9.80;2.60;;;;;;;18.30;40.01;99353.34;4993216;28;20129;-85
2022/04/09 08:02:47;;;;;;;6.85;2.58;;;;;;;18.55;39.90;99382.97;5010778;28;20054;-85
2022/04/09 08:05:15;;;;;;;11.30;2.67;;;;;;;18.05;39.16;99297.75;4992986;28;20338;-86
2022/04/09 08:07:42;;;;;;;7.38;2.47;;;;;;;18.75;39.09;99409.69;5006969;28;20056;-85
2022/04/09 08:10:11;;;;;;;9.18;2.92;;;;;;;18.56;39.61;99395.34;5010541;28;20050;-85
2022/04/09 08:12:38;;;;;;;6.88;2.35;;;;;;;18.20;38.90;99305.47;5010727;28;20430;-84
2022/04/09 08:15:06;;;;;;;8.05;1.98;;;;;;;18.78;39.15;99377.00;4992953;28;20149;-85
2022/04/09 08:17:33;;;;;;;9.40;2.50;;;;;;;19.04;38.81;99418.16;4993014;28;20068;-86
2022/04/09 08:20:00;;;;;;;8.10;2.40;;;;;;;19.24;38.55;99418.78;4992828;28;20056;-85
2022/04/09 08:22:28;;;;;;;8.38;2.55;;;;;;;18.72;38.08;99318.72;5010320;28;20046;-84
2022/04/09 08:24:56;;;;;;;5.95;2.15;;;;;;;18.81;38.22;99335.41;5010494;28;20112;-86
2022/04/09 08:27:23;;;;;;;7.30;1.80;;;;;;;18.88;37.96;99330.81;5010479;28;20137;-85
2022/04/09 08:29:49;;;;;;;9.68;2.13;;;;;;;19.38;37.75;99388.03;4992642;28;20519;-85
2022/04/09 08:32:19;;;;;;;8.40;2.58;;;;;;;19.74;37.89;99431.38;4992394;28;20575;-85
2022/04/09 08:34:45;;;;;;;7.50;2.47;;;;;;;19.67;37.38;99412.56;5010322;28;20169;-84
2022/04/09 08:37:12;;;;;;;5.82;2.08;;;;;;;18.45;37.56;99206.09;4991965;28;20045;-86
2022/04/09 08:39:39;;;;;;;10.57;3.03;;;;;;;19.96;37.09;99443.31;4991975;28;20138;-85
2022/04/09 08:42:06;;;;;;;6.38;2.42;;;;;;;19.78;36.54;99393.00;4992847;28;20053;-85
2022/04/09 08:44:36;;;;;;;7.80;2.35;;;;;;;19.91;36.35;99392.00;4992930;28;20046;-83
2022/04/09 08:47:03;;;;;;;11.80;2.22;;;;;;;20.16;36.45;99434.97;4992380;28;20057;-85
2022/04/09 08:49:36;;;;;;;6.93;2.35;;;;;;;20.02;37.05;99434.31;4992319;28;20129;-84
2022/04/09 08:52:07;;;;;;;8.32;1.75;;;;;;;19.94;37.21;99418.47;4992210;28;20053;-85
2022/04/09 08:54:36;;;;;;;12.40;3.28;;;;;;;19.40;36.89;99329.44;5009850;28;20057;-83
2022/04/09 08:57:04;;;;;;;9.65;2.65;;;;;;;20.15;36.74;99433.34;5008996;28;20153;-86
2022/04/09 08:59:32;;;;;;;7.20;2.20;;;;;;;18.90;36.90;99221.97;4992064;28;20041;-86
2022/04/09 09:01:59;;;;;;;7.10;2.35;;;;;;;19.56;37.10;99354.06;5008769;28;20056;-84
2022/04/09 09:04:26;;;;;;;15.65;3.00;;;;;;;20.00;37.42;99411.34;5008109;28;20058;-84
2022/04/09 09:06:52;;;;;;;12.05;2.90;;;;;;;20.26;37.05;99454.09;4988220;28;20050;-84
2022/04/09 09:09:32;;;;;;;9.18;2.40;;;;;;;20.36;36.06;99432.00;4988741;28;20182;-86
2022/04/09 09:12:00;;;;;;;10.75;2.45;;;;;;;18.99;36.56;99223.31;4991840;28;20447;-84
2022/04/09 09:14:32;;;;;;;9.45;2.50;;;;;;;20.38;36.93;99445.25;4992492;28;20041;-84
2022/04/09 09:17:00;;;;;;;11.68;2.38;;;;;;;20.46;36.52;99453.88;4991762;28;20076;-85
2022/04/09 09:19:39;;;;;;;7.93;2.10;;;;;;;20.65;35.96;99464.59;5009294;28;20069;-84
2022/04/09 09:22:06;;;;;;;11.60;3.17;;;;;;;20.62;35.96;99452.41;4992052;28;20050;-84
2022/04/09 09:24:33;;;;;;;11.63;2.80;;;;;;;20.58;36.09;99450.41;4991877;28;20050;-84
2022/04/09 09:27:02;;;;;;;13.40;2.60;;;;;;;20.74;35.54;99459.72;5009328;28;20123;-84
2022/04/09 09:29:30;;;;;;;9.98;2.53;;;;;;;20.90;35.22;99461.75;5009604;28;20081;-85
2022/04/09 09:31:58;;;;;;;8.35;2.78;;;;;;;20.74;35.91;99454.31;4992756;28;20058;-87
2022/04/09 09:34:26;;;;;;;11.63;3.20;;;;;;;20.33;35.57;99372.38;5011117;28;20367;-85
2022/04/09 09:36:53;;;;;;;11.77;2.50;;;;;;;20.85;35.80;99450.81;4995390;28;20088;-86
2022/04/09 09:39:22;;;;;;;10.27;2.83;;;;;;;21.26;34.90;99462.59;5012256;28;20100;-87
2022/04/09 09:41:54;;;;;;;7.90;2.17;;;;;;;21.51;34.17;99467.81;4993500;28;20080;-86
2022/04/09 09:44:27;;;;;;;9.52;2.17;;;;;;;21.17;34.08;99420.84;4993773;28;20073;-85
2022/04/09 09:46:54;;;;;;;;;;;;;;;21.57;33.75;99463.34;4994929;28;20049;-86
2022/04/09 09:49:25;;;;;;;8.50;2.10;;;;;;;20.85;34.26;99348.31;4996700;28;19925;-85
2022/04/09 09:52:06;;;;;;;10.68;2.55;;;;;;;20.42;34.39;99277.47;4995238;28;20053;-86
2022/04/09 09:54:33;;;;;;;8.75;2.85;;;;;;;21.70;34.35;99457.66;4995965;28;20582;-86
2022/04/09 09:57:00;;;;;;;6.05;2.38;;;;;;;21.52;33.74;99407.34;5012397;28;20042;-85
2022/04/09 09:59:28;;;;;;;11.07;2.85;;;;;;;21.61;33.34;99399.69;5011452;28;20050;-88
2022/04/09 10:01:56;;;;;;;9.98;2.72;;;;;;;21.69;33.65;99394.72;4991881;28;20522;-86
2022/04/09 10:04:26;;;;;;;8.20;2.75;;;;;;;22.24;33.32;99457.47;5007716;28;20057;-87
2022/04/09 10:06:54;;;;;;;6.38;1.90;;;;;;;22.42;31.70;99432.94;4913739;28;20214;-84
2022/04/09 10:09:26;;;;;;;7.90;2.50;;;;;;;22.38;32.40;99432.59;4866158;29;20336;-85
2022/04/09 10:11:55;;;;;;;5.45;2.20;;;;;;;22.06;32.58;99369.25;4873320;29;20084;-86
2022/04/09 10:14:26;;;;;;;5.75;2.10;;;;;;;21.58;31.97;99278.66;4888980;29;20057;-87
2022/04/09 10:16:54;;;;;;;17.98;2.97;;;;;;;21.98;31.60;99322.63;4888388;29;20052;-88
2022/04/09 10:19:25;;;;;;;8.85;2.75;;;;;;;21.83;31.99;99278.31;4888551;29;20491;-86
2022/04/09 10:21:53;;;;;;;13.63;2.60;;;;;;;23.21;31.77;99462.72;4873731;29;20591;-87
2022/04/09 10:24:25;;;;;;;18.25;2.83;;;;;;;22.50;31.43;99350.59;4873655;29;20059;-88
2022/04/09 10:27:37;;;;;;;8.85;3.22;;;;;;;23.37;31.44;99473.75;4873448;29;20143;-87
2022/04/09 10:30:17;;;;;;;;;;;;;;;23.46;31.02;99481.22;4878902;29;20061;-87
2022/04/09 10:33:00;;;;;;;11.57;3.10;;;;;;;22.72;30.90;99353.38;4872959;29;19923;-85
2022/04/09 10:35:31;;;;;;;10.05;2.65;;;;;;;22.47;31.56;99318.63;4872689;29;20092;-87
2022/04/09 10:38:09;;;;;;;8.30;2.72;;;;;;;23.51;31.79;99477.78;4873008;29;20063;-86
2022/04/09 10:40:57;;;;;;;9.88;2.92;;;;;;;23.44;31.38;99450.03;4931107;28;20086;-86
2022/04/09 10:43:42;;;;;;;16.80;2.78;;;;;;;23.75;31.12;99483.00;4967052;28;20062;-86
2022/04/09 10:46:17;;;;;;;11.45;2.97;;;;;;;23.78;30.47;99471.66;4968925;28;20064;-89
2022/04/09 10:48:49;;;;;;;8.98;3.45;;;;;;;23.32;30.45;99392.47;4967931;28;20051;-87
2022/04/09 10:51:16;;;;;;;10.60;2.83;;;;;;;23.89;29.77;99484.28;4973602;28;20559;-88
2022/04/09 10:54:19;;;;;;;7.30;2.47;;;;;;;22.76;30.15;99314.75;4982691;28;20123;-90
2022/04/09 10:56:48;;;;;;;11.95;2.22;;;;;;;23.73;30.92;99471.56;4987159;28;20034;-87
2022/04/09 10:59:18;;;;;;;8.60;2.83;;;;;;;23.60;30.59;99416.69;4984955;28;20118;-88
2022/04/09 11:01:50;;;;;;;11.70;2.70;;;;;;;24.08;30.23;99488.34;4980906;28;20121;-88
2022/04/09 11:04:27;;;;;;;11.07;2.88;;;;;;;24.10;30.03;99485.34;4971414;28;20059;-88
2022/04/09 11:07:18;;;;;;;9.93;1.90;;;;;;;22.78;30.70;99301.81;4965668;28;20107;-87
2022/04/09 11:10:00;;;;;;;12.48;2.70;;;;;;;23.54;30.49;99433.13;4948350;28;20043;-89
2022/04/09 11:12:30;;;;;;;12.40;2.80;;;;;;;23.41;30.75;99432.41;4950134;29;20505;-87
2022/04/09 11:15:03;;;;;;;10.95;2.75;;;;;;;23.27;30.73;99417.56;4964508;28;20058;-87
2022/04/09 11:17:49;;;;;;;7.13;2.20;;;;;;;22.45;31.10;99291.00;4964306;28;20051;-89
2022/04/09 11:20:23;;;;;;;6.03;2.22;;;;;;;23.09;31.82;99445.75;4949176;28;20122;-89
2022/04/09 11:22:52;;;;;;;9.65;2.45;;;;;;;22.60;31.46;99359.69;4963791;28;20058;-87
2022/04/09 11:25:22;;;;;;;9.00;2.70;;;;;;;22.57;31.34;99370.16;4950239;29;20445;-87
2022/04/09 11:27:49;;;;;;;9.15;2.47;;;;;;;23.14;31.82;99518.09;4967822;28;20051;-89
2022/04/09 11:30:16;;;;;;;7.63;2.97;;;;;;;23.00;31.90;99493.22;4962460;29;20043;-89
2022/04/09 11:32:45;;;;;;;8.38;2.30;;;;;;;23.22;31.71;99532.03;4959894;29;20051;-87
2022/04/09 11:35:24;;;;;;;9.77;2.42;;;;;;;22.27;31.99;99403.72;4960559;29;20059;-83
2022/04/09 11:37:51;;;;;;;;;;;;;;;23.38;31.20;99543.13;4954993;29;20055;-86